sensor_id;sensor_type;location;lat;lon;timestamp;temperature;humidity
44182;DHT22;30436;48.888;9.202;2022-10-29T00:02:05;18.30;99.90
44182;DHT22;30436;48.888;9.202;2022-10-29T00:04:31;18.30;99.90
44182;DHT22;30436;48.888;9.202;2022-10-29T00:06:56;18.20;99.90
44182;DHT22;30436;48.888;9.202;2022-10-29T00:09:22;18.10;99.90
44182;DHT22;30436;48.888;9.202;2022-10-29T00:11:48;18.20;99.90
44182;DHT22;30436;48.888;9.202;2022-10-29T00:14:15;18.10;99.90
44182;DHT22;30436;48.888;9.202;2022-10-29T00:16:40;18.10;99.90
44182;DHT22;30436;48.888;9.202;2022-10-29T00:19:06;18.20;99.90
44182;DHT22;30436;48.888;9.202;2022-10-29T00:21:32;18.10;99.90
44182;DHT22;30436;48.888;9.202;2022-10-29T00:23:58;18.00;99.90
44182;DHT22;30436;48.888;9.202;2022-10-29T00:26:26;18.10;99.90
44182;DHT22;30436;48.888;9.202;2022-10-29T00:28:54;17.90;99.90
44182;DHT22;30436;48.888;9.202;2022-10-29T00:31:20;17.80;99.90
44182;DHT22;30436;48.888;9.202;2022-10-29T00:33:49;17.60;99.90
44182;DHT22;30436;48.888;9.202;2022-10-29T00:36:18;17.60;99.90
44182;DHT22;30436;48.888;9.202;2022-10-29T00:38:44;17.50;99.90
44182;DHT22;30436;48.888;9.202;2022-10-29T00:41:13;17.50;99.90
44182;DHT22;30436;48.888;9.202;2022-10-29T00:43:42;17.60;99.90
44182;DHT22;30436;48.888;9.202;2022-10-29T00:48:47;17.40;99.90
44182;DHT22;30436;48.888;9.202;2022-10-29T00:51:15;17.40;99.90
44182;DHT22;30436;48.888;9.202;2022-10-29T00:53:48;17.10;99.90
44182;DHT22;30436;48.888;9.202;2022-10-29T00:56:15;17.00;99.90
44182;DHT22;30436;48.888;9.202;2022-10-29T00:58:42;17.00;99.90
44182;DHT22;30436;48.888;9.202;2022-10-29T01:01:08;17.00;99.90
44182;DHT22;30436;48.888;9.202;2022-10-29T01:03:34;16.90;99.90
44182;DHT22;30436;48.888;9.202;2022-10-29T01:06:01;16.80;99.90
44182;DHT22;30436;48.888;9.202;2022-10-29T01:08:27;17.00;99.90
44182;DHT22;30436;48.888;9.202;2022-10-29T01:22:43;16.70;99.90
44182;DHT22;30436;48.888;9.202;2022-10-29T01:28:21;16.70;99.90
44182;DHT22;30436;48.888;9.202;2022-10-29T01:31:00;16.60;99.90
44182;DHT22;30436;48.888;9.202;2022-10-29T01:34:00;16.70;99.90
44182;DHT22;30436;48.888;9.202;2022-10-29T01:36:42;16.60;99.90
44182;DHT22;30436;48.888;9.202;2022-10-29T01:39:36;16.50;99.90
44182;DHT22;30436;48.888;9.202;2022-10-29T01:42:09;16.50;99.90
44182;DHT22;30436;48.888;9.202;2022-10-29T01:44:59;16.50;99.90
44182;DHT22;30436;48.888;9.202;2022-10-29T01:47:31;16.60;99.90
44182;DHT22;30436;48.888;9.202;2022-10-29T01:50:01;16.60;99.90
44182;DHT22;30436;48.888;9.202;2022-10-29T01:52:31;16.70;99.90
44182;DHT22;30436;48.888;9.202;2022-10-29T01:54:58;16.50;99.90
44182;DHT22;30436;48.888;9.202;2022-10-29T01:59:55;16.30;99.90
44182;DHT22;30436;48.888;9.202;2022-10-29T02:05:17;16.30;99.90
44182;DHT22;30436;48.888;9.202;2022-10-29T02:08:36;16.30;99.90
44182;DHT22;30436;48.888;9.202;2022-10-29T02:10:47;16.30;99.90
44182;DHT22;30436;48.888;9.202;2022-10-29T02:13:16;16.40;99.90
44182;DHT22;30436;48.888;9.202;2022-10-29T02:15:49;16.50;99.90
44182;DHT22;30436;48.888;9.202;2022-10-29T02:18:17;16.50;99.90
44182;DHT22;30436;48.888;9.202;2022-10-29T02:20:44;16.40;99.90
44182;DHT22;30436;48.888;9.202;2022-10-29T02:23:10;16.50;99.90
44182;DHT22;30436;48.888;9.202;2022-10-29T02:25:36;16.50;99.90
44182;DHT22;30436;48.888;9.202;2022-10-29T02:28:02;16.60;99.90
44182;DHT22;30436;48.888;9.202;2022-10-29T02:30:28;16.70;99.90
44182;DHT22;30436;48.888;9.202;2022-10-29T02:32:53;16.50;99.90
44182;DHT22;30436;48.888;9.202;2022-10-29T02:35:19;16.40;99.90
44182;DHT22;30436;48.888;9.202;2022-10-29T02:37:45;16.30;99.90
44182;DHT22;30436;48.888;9.202;2022-10-29T02:40:11;16.30;99.90
44182;DHT22;30436;48.888;9.202;2022-10-29T02:42:37;16.40;99.90
44182;DHT22;30436;48.888;9.202;2022-10-29T02:45:02;16.40;99.90
44182;DHT22;30436;48.888;9.202;2022-10-29T02:47:28;16.50;99.90
44182;DHT22;30436;48.888;9.202;2022-10-29T02:49:54;16.50;99.90
44182;DHT22;30436;48.888;9.202;2022-10-29T02:52:19;16.60;99.90
44182;DHT22;30436;48.888;9.202;2022-10-29T02:54:45;16.60;99.90
44182;DHT22;30436;48.888;9.202;2022-10-29T02:57:11;16.70;99.90
44182;DHT22;30436;48.888;9.202;2022-10-29T02:59:36;16.70;99.90
44182;DHT22;30436;48.888;9.202;2022-10-29T03:02:02;16.80;99.90
44182;DHT22;30436;48.888;9.202;2022-10-29T03:04:28;16.90;99.90
44182;DHT22;30436;48.888;9.202;2022-10-29T03:06:53;16.80;99.90
44182;DHT22;30436;48.888;9.202;2022-10-29T03:09:19;16.80;99.90
44182;DHT22;30436;48.888;9.202;2022-10-29T03:11:44;16.80;99.90
44182;DHT22;30436;48.888;9.202;2022-10-29T03:14:10;16.70;99.90
44182;DHT22;30436;48.888;9.202;2022-10-29T03:16:36;16.60;99.90
44182;DHT22;30436;48.888;9.202;2022-10-29T03:19:02;16.60;99.90
44182;DHT22;30436;48.888;9.202;2022-10-29T03:21:27;16.50;99.90
44182;DHT22;30436;48.888;9.202;2022-10-29T03:23:53;16.60;99.90
44182;DHT22;30436;48.888;9.202;2022-10-29T03:26:19;16.50;99.90
44182;DHT22;30436;48.888;9.202;2022-10-29T03:28:44;16.50;99.90
44182;DHT22;30436;48.888;9.202;2022-10-29T03:31:10;16.60;99.90
44182;DHT22;30436;48.888;9.202;2022-10-29T03:33:36;16.60;99.90
44182;DHT22;30436;48.888;9.202;2022-10-29T03:36:04;16.50;99.90
44182;DHT22;30436;48.888;9.202;2022-10-29T03:38:31;16.50;99.90
44182;DHT22;30436;48.888;9.202;2022-10-29T03:40:57;16.40;99.90
44182;DHT22;30436;48.888;9.202;2022-10-29T03:43:23;16.40;99.90
44182;DHT22;30436;48.888;9.202;2022-10-29T03:45:53;16.30;99.90
44182;DHT22;30436;48.888;9.202;2022-10-29T03:48:19;16.40;99.90
44182;DHT22;30436;48.888;9.202;2022-10-29T03:50:53;16.30;99.90
44182;DHT22;30436;48.888;9.202;2022-10-29T03:53:19;16.40;99.90
44182;DHT22;30436;48.888;9.202;2022-10-29T03:55:44;16.40;99.90
44182;DHT22;30436;48.888;9.202;2022-10-29T03:58:10;16.50;99.90
44182;DHT22;30436;48.888;9.202;2022-10-29T04:00:36;16.50;99.90
44182;DHT22;30436;48.888;9.202;2022-10-29T04:03:01;16.50;99.90
44182;DHT22;30436;48.888;9.202;2022-10-29T04:05:27;16.60;99.90
44182;DHT22;30436;48.888;9.202;2022-10-29T04:07:52;16.50;99.90
44182;DHT22;30436;48.888;9.202;2022-10-29T04:10:18;16.40;99.90
44182;DHT22;30436;48.888;9.202;2022-10-29T04:12:45;16.40;99.90
44182;DHT22;30436;48.888;9.202;2022-10-29T04:15:11;16.40;99.90
44182;DHT22;30436;48.888;9.202;2022-10-29T04:17:36;16.20;99.90
44182;DHT22;30436;48.888;9.202;2022-10-29T04:20:02;16.20;99.90
44182;DHT22;30436;48.888;9.202;2022-10-29T04:22:28;16.40;99.90
44182;DHT22;30436;48.888;9.202;2022-10-29T04:24:54;16.40;99.90
44182;DHT22;30436;48.888;9.202;2022-10-29T04:27:19;16.20;99.90
44182;DHT22;30436;48.888;9.202;2022-10-29T04:29:45;16.20;99.90
44182;DHT22;30436;48.888;9.202;2022-10-29T04:32:10;16.30;99.90
44182;DHT22;30436;48.888;9.202;2022-10-29T04:34:36;16.20;99.90
44182;DHT22;30436;48.888;9.202;2022-10-29T04:37:02;16.10;99.90
44182;DHT22;30436;48.888;9.202;2022-10-29T04:39:27;16.30;99.90
44182;DHT22;30436;48.888;9.202;2022-10-29T04:41:53;16.30;99.90
44182;DHT22;30436;48.888;9.202;2022-10-29T04:44:19;16.20;99.90
44182;DHT22;30436;48.888;9.202;2022-10-29T04:46:44;16.30;99.90
44182;DHT22;30436;48.888;9.202;2022-10-29T04:49:10;16.10;99.90
44182;DHT22;30436;48.888;9.202;2022-10-29T04:51:36;16.10;99.90
44182;DHT22;30436;48.888;9.202;2022-10-29T04:54:01;16.00;99.90
44182;DHT22;30436;48.888;9.202;2022-10-29T04:56:28;15.90;99.90
44182;DHT22;30436;48.888;9.202;2022-10-29T04:58:54;16.00;99.90
44182;DHT22;30436;48.888;9.202;2022-10-29T05:01:20;15.90;99.90
44182;DHT22;30436;48.888;9.202;2022-10-29T05:03:45;15.90;99.90
44182;DHT22;30436;48.888;9.202;2022-10-29T05:06:11;15.90;99.90
44182;DHT22;30436;48.888;9.202;2022-10-29T05:08:37;16.10;99.90
44182;DHT22;30436;48.888;9.202;2022-10-29T05:11:04;16.10;99.90
44182;DHT22;30436;48.888;9.202;2022-10-29T05:13:30;16.00;99.90
44182;DHT22;30436;48.888;9.202;2022-10-29T05:15:56;16.00;99.90
44182;DHT22;30436;48.888;9.202;2022-10-29T05:18:22;16.00;99.90
44182;DHT22;30436;48.888;9.202;2022-10-29T05:20:51;16.00;99.90
44182;DHT22;30436;48.888;9.202;2022-10-29T05:23:17;16.00;99.90
44182;DHT22;30436;48.888;9.202;2022-10-29T05:25:43;16.00;99.90
44182;DHT22;30436;48.888;9.202;2022-10-29T05:28:15;15.90;99.90
44182;DHT22;30436;48.888;9.202;2022-10-29T05:30:43;15.90;99.90
44182;DHT22;30436;48.888;9.202;2022-10-29T05:33:10;15.90;99.90
44182;DHT22;30436;48.888;9.202;2022-10-29T05:35:36;15.80;99.90
44182;DHT22;30436;48.888;9.202;2022-10-29T05:38:03;15.90;99.90
44182;DHT22;30436;48.888;9.202;2022-10-29T05:40:29;15.90;99.90
44182;DHT22;30436;48.888;9.202;2022-10-29T05:42:55;15.80;99.90
44182;DHT22;30436;48.888;9.202;2022-10-29T05:45:24;15.70;99.90
44182;DHT22;30436;48.888;9.202;2022-10-29T05:47:57;15.70;99.90
44182;DHT22;30436;48.888;9.202;2022-10-29T05:50:23;15.80;99.90
44182;DHT22;30436;48.888;9.202;2022-10-29T05:53:02;15.70;99.90
44182;DHT22;30436;48.888;9.202;2022-10-29T05:55:31;15.60;99.90
44182;DHT22;30436;48.888;9.202;2022-10-29T05:57:58;15.50;99.90
44182;DHT22;30436;48.888;9.202;2022-10-29T06:00:26;15.50;99.90
44182;DHT22;30436;48.888;9.202;2022-10-29T06:02:52;15.60;99.90
44182;DHT22;30436;48.888;9.202;2022-10-29T06:05:18;15.70;99.90
44182;DHT22;30436;48.888;9.202;2022-10-29T06:07:44;15.60;99.90
44182;DHT22;30436;48.888;9.202;2022-10-29T06:10:09;15.60;99.90
44182;DHT22;30436;48.888;9.202;2022-10-29T06:12:35;15.60;99.90
44182;DHT22;30436;48.888;9.202;2022-10-29T06:15:04;15.50;99.90
44182;DHT22;30436;48.888;9.202;2022-10-29T06:17:30;15.60;99.90
44182;DHT22;30436;48.888;9.202;2022-10-29T06:19:56;15.60;99.90
44182;DHT22;30436;48.888;9.202;2022-10-29T06:22:29;15.60;99.90
44182;DHT22;30436;48.888;9.202;2022-10-29T07:55:57;16.10;99.90
44182;DHT22;30436;48.888;9.202;2022-10-29T08:01:55;16.40;99.90
44182;DHT22;30436;48.888;9.202;2022-10-29T08:04:28;16.50;99.90
44182;DHT22;30436;48.888;9.202;2022-10-29T08:07:04;16.50;99.90
44182;DHT22;30436;48.888;9.202;2022-10-29T08:12:58;16.50;99.90
44182;DHT22;30436;48.888;9.202;2022-10-29T08:15:28;16.50;99.90
44182;DHT22;30436;48.888;9.202;2022-10-29T08:17:55;16.50;99.90
44182;DHT22;30436;48.888;9.202;2022-10-29T08:20:23;16.60;99.90
44182;DHT22;30436;48.888;9.202;2022-10-29T08:22:58;16.70;99.90
44182;DHT22;30436;48.888;9.202;2022-10-29T08:25:34;16.80;99.90
44182;DHT22;30436;48.888;9.202;2022-10-29T08:28:06;16.90;99.90
44182;DHT22;30436;48.888;9.202;2022-10-29T08:30:41;17.00;99.90
44182;DHT22;30436;48.888;9.202;2022-10-29T08:33:10;17.10;99.90
44182;DHT22;30436;48.888;9.202;2022-10-29T08:35:39;17.20;99.90
44182;DHT22;30436;48.888;9.202;2022-10-29T08:38:05;17.20;99.90
44182;DHT22;30436;48.888;9.202;2022-10-29T08:43:55;17.50;99.90
44182;DHT22;30436;48.888;9.202;2022-10-29T08:49:31;17.70;99.90
44182;DHT22;30436;48.888;9.202;2022-10-29T08:52:03;17.80;99.90
44182;DHT22;30436;48.888;9.202;2022-10-29T08:54:32;17.80;99.90
44182;DHT22;30436;48.888;9.202;2022-10-29T08:57:15;17.80;99.90
44182;DHT22;30436;48.888;9.202;2022-10-29T09:02:19;17.90;99.90
44182;DHT22;30436;48.888;9.202;2022-10-29T09:04:45;17.90;99.90
44182;DHT22;30436;48.888;9.202;2022-10-29T09:23:11;18.60;99.90
44182;DHT22;30436;48.888;9.202;2022-10-29T09:25:54;18.70;99.90
44182;DHT22;30436;48.888;9.202;2022-10-29T09:28:38;18.90;99.90
44182;DHT22;30436;48.888;9.202;2022-10-29T09:33:47;19.30;99.90
44182;DHT22;30436;48.888;9.202;2022-10-29T09:36:19;19.50;99.90
44182;DHT22;30436;48.888;9.202;2022-10-29T09:38:56;19.70;99.90
44182;DHT22;30436;48.888;9.202;2022-10-29T09:41:26;19.80;99.90
44182;DHT22;30436;48.888;9.202;2022-10-29T09:44:06;19.90;99.90
44182;DHT22;30436;48.888;9.202;2022-10-29T09:49:25;20.30;99.90
44182;DHT22;30436;48.888;9.202;2022-10-29T09:52:05;20.50;99.90
44182;DHT22;30436;48.888;9.202;2022-10-29T09:54:35;20.60;99.90
44182;DHT22;30436;48.888;9.202;2022-10-29T09:57:01;20.80;99.90
44182;DHT22;30436;48.888;9.202;2022-10-29T09:59:38;21.00;99.90
44182;DHT22;30436;48.888;9.202;2022-10-29T10:17:13;22.50;99.90
44182;DHT22;30436;48.888;9.202;2022-10-29T10:19:48;22.70;99.90
44182;DHT22;30436;48.888;9.202;2022-10-29T10:22:21;23.00;99.90
44182;DHT22;30436;48.888;9.202;2022-10-29T10:24:51;23.30;99.90
44182;DHT22;30436;48.888;9.202;2022-10-29T10:27:29;23.40;99.90
44182;DHT22;30436;48.888;9.202;2022-10-29T10:30:15;23.40;99.90
44182;DHT22;30436;48.888;9.202;2022-10-29T10:32:45;23.70;99.90
44182;DHT22;30436;48.888;9.202;2022-10-29T10:35:39;24.10;99.90
44182;DHT22;30436;48.888;9.202;2022-10-29T10:38:08;24.20;99.90
44182;DHT22;30436;48.888;9.202;2022-10-29T10:40:34;24.60;99.80
44182;DHT22;30436;48.888;9.202;2022-10-29T10:43:02;24.80;99.10
44182;DHT22;30436;48.888;9.202;2022-10-29T10:45:35;25.30;97.10
44182;DHT22;30436;48.888;9.202;2022-10-29T10:48:07;25.60;95.70
44182;DHT22;30436;48.888;9.202;2022-10-29T10:50:35;25.90;95.00
44182;DHT22;30436;48.888;9.202;2022-10-29T10:53:05;25.90;93.90
44182;DHT22;30436;48.888;9.202;2022-10-29T10:55:52;26.30;93.90
44182;DHT22;30436;48.888;9.202;2022-10-29T10:58:25;26.40;91.90
44182;DHT22;30436;48.888;9.202;2022-10-29T11:00:56;26.70;90.00
44182;DHT22;30436;48.888;9.202;2022-10-29T11:03:31;27.20;87.10
44182;DHT22;30436;48.888;9.202;2022-10-29T11:06:21;27.20;90.10
44182;DHT22;30436;48.888;9.202;2022-10-29T11:11:37;27.50;82.30
44182;DHT22;30436;48.888;9.202;2022-10-29T11:14:21;27.60;80.00
44182;DHT22;30436;48.888;9.202;2022-10-29T11:16:56;27.70;80.00
44182;DHT22;30436;48.888;9.202;2022-10-29T11:19:29;27.80;78.10
44182;DHT22;30436;48.888;9.202;2022-10-29T11:24:54;28.90;74.20
44182;DHT22;30436;48.888;9.202;2022-10-29T11:30:16;29.40;71.00
44182;DHT22;30436;48.888;9.202;2022-10-29T11:32:54;30.10;70.70
44182;DHT22;30436;48.888;9.202;2022-10-29T11:35:35;30.20;69.40
44182;DHT22;30436;48.888;9.202;2022-10-29T11:43:14;32.50;61.70
44182;DHT22;30436;48.888;9.202;2022-10-29T11:51:15;33.60;59.10
44182;DHT22;30436;48.888;9.202;2022-10-29T12:12:55;38.10;47.80
44182;DHT22;30436;48.888;9.202;2022-10-29T12:15:40;38.00;48.20
44182;DHT22;30436;48.888;9.202;2022-10-29T12:18:26;37.70;49.50
44182;DHT22;30436;48.888;9.202;2022-10-29T12:27:16;39.20;46.50
44182;DHT22;30436;48.888;9.202;2022-10-29T12:32:25;40.50;46.00
44182;DHT22;30436;48.888;9.202;2022-10-29T12:35:14;40.80;44.20
44182;DHT22;30436;48.888;9.202;2022-10-29T12:40:23;41.10;44.80
44182;DHT22;30436;48.888;9.202;2022-10-29T12:42:51;40.10;45.40
44182;DHT22;30436;48.888;9.202;2022-10-29T12:45:39;39.20;45.50
44182;DHT22;30436;48.888;9.202;2022-10-29T12:51:40;37.30;49.50
44182;DHT22;30436;48.888;9.202;2022-10-29T12:56:52;37.60;48.90
44182;DHT22;30436;48.888;9.202;2022-10-29T13:02:47;38.20;47.50
44182;DHT22;30436;48.888;9.202;2022-10-29T13:05:35;37.90;49.50
44182;DHT22;30436;48.888;9.202;2022-10-29T13:15:37;37.40;49.40
44182;DHT22;30436;48.888;9.202;2022-10-29T13:18:18;37.20;49.80
44182;DHT22;30436;48.888;9.202;2022-10-29T13:20:51;36.30;50.40
44182;DHT22;30436;48.888;9.202;2022-10-29T13:25:53;35.00;52.10
44182;DHT22;30436;48.888;9.202;2022-10-29T13:30:47;31.90;55.70
44182;DHT22;30436;48.888;9.202;2022-10-29T13:41:41;29.50;61.90
44182;DHT22;30436;48.888;9.202;2022-10-29T13:44:18;29.00;61.50
44182;DHT22;30436;48.888;9.202;2022-10-29T13:49:43;28.50;64.50
44182;DHT22;30436;48.888;9.202;2022-10-29T13:52:19;28.30;64.20
44182;DHT22;30436;48.888;9.202;2022-10-29T14:00:18;27.70;68.20
44182;DHT22;30436;48.888;9.202;2022-10-29T14:21:20;27.50;72.30
44182;DHT22;30436;48.888;9.202;2022-10-29T14:42:55;26.40;77.90
44182;DHT22;30436;48.888;9.202;2022-10-29T14:46:25;26.10;77.90
44182;DHT22;30436;48.888;9.202;2022-10-29T14:53:00;25.90;81.40
44182;DHT22;30436;48.888;9.202;2022-10-29T15:03:28;25.60;85.10
44182;DHT22;30436;48.888;9.202;2022-10-29T15:06:25;25.50;85.50
44182;DHT22;30436;48.888;9.202;2022-10-29T15:09:16;25.40;83.70
44182;DHT22;30436;48.888;9.202;2022-10-29T15:12:45;25.20;84.40
44182;DHT22;30436;48.888;9.202;2022-10-29T15:15:40;25.20;88.00
44182;DHT22;30436;48.888;9.202;2022-10-29T15:18:53;25.30;86.00
44182;DHT22;30436;48.888;9.202;2022-10-29T15:34:07;24.40;90.30
44182;DHT22;30436;48.888;9.202;2022-10-29T15:36:48;24.30;90.20
44182;DHT22;30436;48.888;9.202;2022-10-29T15:39:26;24.10;90.20
44182;DHT22;30436;48.888;9.202;2022-10-29T15:42:21;24.00;90.90
44182;DHT22;30436;48.888;9.202;2022-10-29T15:50:50;23.80;90.00
44182;DHT22;30436;48.888;9.202;2022-10-29T15:53:22;23.80;87.20
44182;DHT22;30436;48.888;9.202;2022-10-29T15:55:50;23.70;88.40
44182;DHT22;30436;48.888;9.202;2022-10-29T15:58:21;23.90;90.20
44182;DHT22;30436;48.888;9.202;2022-10-29T16:00:48;23.60;90.20
44182;DHT22;30436;48.888;9.202;2022-10-29T16:03:19;23.50;90.70
44182;DHT22;30436;48.888;9.202;2022-10-29T16:05:47;23.50;90.40
44182;DHT22;30436;48.888;9.202;2022-10-29T16:08:25;23.50;90.70
44182;DHT22;30436;48.888;9.202;2022-10-29T16:10:53;23.20;90.80
44182;DHT22;30436;48.888;9.202;2022-10-29T16:13:20;23.30;91.20
44182;DHT22;30436;48.888;9.202;2022-10-29T16:15:46;23.10;90.50
44182;DHT22;30436;48.888;9.202;2022-10-29T16:18:12;23.10;90.50
44182;DHT22;30436;48.888;9.202;2022-10-29T16:20:38;23.00;91.70
44182;DHT22;30436;48.888;9.202;2022-10-29T16:23:03;23.10;90.50
44182;DHT22;30436;48.888;9.202;2022-10-29T16:25:29;23.10;91.10
44182;DHT22;30436;48.888;9.202;2022-10-29T16:27:55;22.90;91.20
44182;DHT22;30436;48.888;9.202;2022-10-29T16:30:22;22.90;92.40
44182;DHT22;30436;48.888;9.202;2022-10-29T16:32:48;22.80;91.30
44182;DHT22;30436;48.888;9.202;2022-10-29T16:35:25;22.80;92.40
44182;DHT22;30436;48.888;9.202;2022-10-29T16:37:53;22.80;92.30
44182;DHT22;30436;48.888;9.202;2022-10-29T16:40:21;22.70;91.80
44182;DHT22;30436;48.888;9.202;2022-10-29T16:42:47;22.70;93.20
44182;DHT22;30436;48.888;9.202;2022-10-29T16:45:22;22.60;92.50
44182;DHT22;30436;48.888;9.202;2022-10-29T16:47:48;22.60;92.00
44182;DHT22;30436;48.888;9.202;2022-10-29T16:50:21;22.60;91.70
44182;DHT22;30436;48.888;9.202;2022-10-29T16:52:47;22.60;92.40
44182;DHT22;30436;48.888;9.202;2022-10-29T16:55:13;22.50;91.40
44182;DHT22;30436;48.888;9.202;2022-10-29T16:57:39;22.60;93.20
44182;DHT22;30436;48.888;9.202;2022-10-29T17:00:06;22.60;92.40
44182;DHT22;30436;48.888;9.202;2022-10-29T17:02:59;22.60;90.70
44182;DHT22;30436;48.888;9.202;2022-10-29T17:05:24;22.60;93.40
44182;DHT22;30436;48.888;9.202;2022-10-29T17:07:52;22.50;92.80
44182;DHT22;30436;48.888;9.202;2022-10-29T17:10:18;22.50;91.90
44182;DHT22;30436;48.888;9.202;2022-10-29T17:12:44;22.50;91.60
44182;DHT22;30436;48.888;9.202;2022-10-29T17:15:10;22.50;92.80
44182;DHT22;30436;48.888;9.202;2022-10-29T17:17:35;22.50;92.30
44182;DHT22;30436;48.888;9.202;2022-10-29T17:20:01;22.40;92.60
44182;DHT22;30436;48.888;9.202;2022-10-29T17:22:27;22.60;92.60
44182;DHT22;30436;48.888;9.202;2022-10-29T17:24:52;22.40;93.00
44182;DHT22;30436;48.888;9.202;2022-10-29T17:27:18;22.40;93.40
44182;DHT22;30436;48.888;9.202;2022-10-29T17:29:44;22.40;93.80
44182;DHT22;30436;48.888;9.202;2022-10-29T17:32:09;22.40;94.40
44182;DHT22;30436;48.888;9.202;2022-10-29T17:34:35;22.50;93.40
44182;DHT22;30436;48.888;9.202;2022-10-29T17:37:01;22.40;93.40
44182;DHT22;30436;48.888;9.202;2022-10-29T17:39:27;22.50;94.30
44182;DHT22;30436;48.888;9.202;2022-10-29T17:41:52;22.40;94.60
44182;DHT22;30436;48.888;9.202;2022-10-29T17:44:18;22.40;94.30
44182;DHT22;30436;48.888;9.202;2022-10-29T17:46:44;22.30;93.80
44182;DHT22;30436;48.888;9.202;2022-10-29T17:49:10;22.30;94.90
44182;DHT22;30436;48.888;9.202;2022-10-29T17:51:35;22.20;95.50
44182;DHT22;30436;48.888;9.202;2022-10-29T17:54:01;22.20;95.00
44182;DHT22;30436;48.888;9.202;2022-10-29T17:56:27;22.00;95.90
44182;DHT22;30436;48.888;9.202;2022-10-29T17:58:54;22.20;96.40
44182;DHT22;30436;48.888;9.202;2022-10-29T18:01:20;22.10;96.40
44182;DHT22;30436;48.888;9.202;2022-10-29T18:03:46;22.00;96.60
44182;DHT22;30436;48.888;9.202;2022-10-29T18:06:12;21.90;98.00
44182;DHT22;30436;48.888;9.202;2022-10-29T18:08:40;21.90;97.30
44182;DHT22;30436;48.888;9.202;2022-10-29T18:11:08;21.80;98.20
44182;DHT22;30436;48.888;9.202;2022-10-29T18:13:36;21.90;99.10
44182;DHT22;30436;48.888;9.202;2022-10-29T18:16:09;21.80;98.70
44182;DHT22;30436;48.888;9.202;2022-10-29T18:18:36;21.70;99.40
44182;DHT22;30436;48.888;9.202;2022-10-29T18:21:03;21.70;99.80
44182;DHT22;30436;48.888;9.202;2022-10-29T18:23:29;21.60;99.90
44182;DHT22;30436;48.888;9.202;2022-10-29T18:26:06;21.60;99.90
44182;DHT22;30436;48.888;9.202;2022-10-29T18:28:43;21.50;99.90
44182;DHT22;30436;48.888;9.202;2022-10-29T18:31:09;21.60;99.90
44182;DHT22;30436;48.888;9.202;2022-10-29T18:33:34;21.50;99.90
44182;DHT22;30436;48.888;9.202;2022-10-29T18:36:00;21.60;99.90
44182;DHT22;30436;48.888;9.202;2022-10-29T18:38:26;21.40;99.90
44182;DHT22;30436;48.888;9.202;2022-10-29T18:40:53;21.40;99.90
44182;DHT22;30436;48.888;9.202;2022-10-29T18:43:19;21.40;99.90
44182;DHT22;30436;48.888;9.202;2022-10-29T18:45:56;21.40;99.90
44182;DHT22;30436;48.888;9.202;2022-10-29T18:48:22;21.40;99.90
44182;DHT22;30436;48.888;9.202;2022-10-29T18:50:48;21.40;99.90
44182;DHT22;30436;48.888;9.202;2022-10-29T18:53:14;21.30;99.90
44182;DHT22;30436;48.888;9.202;2022-10-29T18:55:50;21.40;99.90
44182;DHT22;30436;48.888;9.202;2022-10-29T18:58:17;21.30;99.90
44182;DHT22;30436;48.888;9.202;2022-10-29T19:03:00;21.20;99.90
44182;DHT22;30436;48.888;9.202;2022-10-29T19:05:25;21.20;99.90
44182;DHT22;30436;48.888;9.202;2022-10-29T19:07:51;21.10;99.90
44182;DHT22;30436;48.888;9.202;2022-10-29T19:10:16;21.10;99.90
44182;DHT22;30436;48.888;9.202;2022-10-29T19:12:42;21.30;99.90
44182;DHT22;30436;48.888;9.202;2022-10-29T19:15:08;21.00;99.90
44182;DHT22;30436;48.888;9.202;2022-10-29T19:17:34;21.10;99.90
44182;DHT22;30436;48.888;9.202;2022-10-29T19:19:59;21.00;99.90
44182;DHT22;30436;48.888;9.202;2022-10-29T19:22:25;21.00;99.90
44182;DHT22;30436;48.888;9.202;2022-10-29T19:24:50;21.10;99.90
44182;DHT22;30436;48.888;9.202;2022-10-29T19:27:18;20.90;99.90
44182;DHT22;30436;48.888;9.202;2022-10-29T19:29:43;20.90;99.90
44182;DHT22;30436;48.888;9.202;2022-10-29T19:32:09;21.00;99.90
44182;DHT22;30436;48.888;9.202;2022-10-29T19:34:34;20.80;99.90
44182;DHT22;30436;48.888;9.202;2022-10-29T19:37:00;20.80;99.90
44182;DHT22;30436;48.888;9.202;2022-10-29T19:39:26;20.70;99.90
44182;DHT22;30436;48.888;9.202;2022-10-29T19:41:51;20.70;99.90
44182;DHT22;30436;48.888;9.202;2022-10-29T19:44:17;20.80;99.90
44182;DHT22;30436;48.888;9.202;2022-10-29T19:46:42;20.80;99.90
44182;DHT22;30436;48.888;9.202;2022-10-29T19:49:08;20.80;99.90
44182;DHT22;30436;48.888;9.202;2022-10-29T19:51:34;20.80;99.90
44182;DHT22;30436;48.888;9.202;2022-10-29T19:53:59;20.60;99.90
44182;DHT22;30436;48.888;9.202;2022-10-29T19:56:28;20.60;99.90
44182;DHT22;30436;48.888;9.202;2022-10-29T19:58:53;20.60;99.90
44182;DHT22;30436;48.888;9.202;2022-10-29T20:01:19;20.40;99.90
44182;DHT22;30436;48.888;9.202;2022-10-29T20:03:45;20.40;99.90
44182;DHT22;30436;48.888;9.202;2022-10-29T20:06:11;20.40;99.90
44182;DHT22;30436;48.888;9.202;2022-10-29T20:08:37;20.50;99.90
44182;DHT22;30436;48.888;9.202;2022-10-29T20:11:04;20.50;99.90
44182;DHT22;30436;48.888;9.202;2022-10-29T20:13:30;20.50;99.90
44182;DHT22;30436;48.888;9.202;2022-10-29T20:15:56;20.50;99.90
44182;DHT22;30436;48.888;9.202;2022-10-29T20:18:22;20.40;99.90
44182;DHT22;30436;48.888;9.202;2022-10-29T20:20:54;20.20;99.90
44182;DHT22;30436;48.888;9.202;2022-10-29T20:23:21;20.10;99.90
44182;DHT22;30436;48.888;9.202;2022-10-29T20:25:46;20.10;99.90
44182;DHT22;30436;48.888;9.202;2022-10-29T20:28:12;20.20;99.90
44182;DHT22;30436;48.888;9.202;2022-10-29T20:30:38;20.20;99.90
44182;DHT22;30436;48.888;9.202;2022-10-29T20:33:03;20.20;99.90
44182;DHT22;30436;48.888;9.202;2022-10-29T20:35:29;20.20;99.90
44182;DHT22;30436;48.888;9.202;2022-10-29T20:37:55;20.10;99.90
44182;DHT22;30436;48.888;9.202;2022-10-29T20:40:20;20.20;99.90
44182;DHT22;30436;48.888;9.202;2022-10-29T20:42:49;20.10;99.90
44182;DHT22;30436;48.888;9.202;2022-10-29T20:45:16;20.10;99.90
44182;DHT22;30436;48.888;9.202;2022-10-29T20:47:41;20.10;99.90
44182;DHT22;30436;48.888;9.202;2022-10-29T20:50:07;20.00;99.90
44182;DHT22;30436;48.888;9.202;2022-10-29T20:52:33;19.90;99.90
44182;DHT22;30436;48.888;9.202;2022-10-29T20:54:59;19.80;99.90
44182;DHT22;30436;48.888;9.202;2022-10-29T20:57:24;19.60;99.90
44182;DHT22;30436;48.888;9.202;2022-10-29T20:59:50;19.60;99.90
44182;DHT22;30436;48.888;9.202;2022-10-29T21:02:15;19.50;99.90
44182;DHT22;30436;48.888;9.202;2022-10-29T21:04:41;19.40;99.90
44182;DHT22;30436;48.888;9.202;2022-10-29T21:07:07;19.40;99.90
44182;DHT22;30436;48.888;9.202;2022-10-29T21:09:32;19.40;99.90
44182;DHT22;30436;48.888;9.202;2022-10-29T21:11:58;19.40;99.90